Time;durP1;ratioP1;P1;durP2;ratioP2;P2;SDS_P1;SDS_P2;PMS_P1;PMS_P2;Temp;Humidity;BMP_temperature;BMP_pressure;BME280_temperature;BME280_humidity;BME280_pressure;Samples;Min_cycle;Max_cycle;Signal;HPM_P1;HPM_P2
2021/05/30 00:00:01;;;;;;;2.40;2.20;;;9.40;99.90;;;;;;6179932;23;20409;-90
2021/05/30 00:02:26;;;;;;;2.60;2.40;;;9.20;99.90;;;;;;6179724;23;20398;-91
2021/05/30 00:04:52;;;;;;;2.50;2.30;;;9.20;99.90;;;;;;6180027;23;20234;-90
2021/05/30 00:07:18;;;;;;;3.77;2.10;;;9.30;99.90;;;;;;6179875;23;20224;-90
2021/05/30 00:09:46;;;;;;;2.43;2.20;;;9.40;99.90;;;;;;6180304;23;20165;-91
2021/05/30 00:12:12;;;;;;;2.40;2.20;;;9.40;99.90;;;;;;6179865;23;20169;-90
2021/05/30 00:14:38;;;;;;;2.77;2.50;;;9.30;99.90;;;;;;6180431;23;20441;-90
2021/05/30 00:17:04;;;;;;;2.60;2.40;;;9.10;99.90;;;;;;6180115;23;20397;-90
2021/05/30 00:19:30;;;;;;;2.70;2.50;;;9.10;99.90;;;;;;6179757;23;20155;-90
2021/05/30 00:21:55;;;;;;;2.77;2.57;;;9.20;99.90;;;;;;6179783;23;20404;-90
2021/05/30 00:24:21;;;;;;;2.80;2.60;;;9.10;99.90;;;;;;6179136;23;20451;-92
2021/05/30 00:26:47;;;;;;;2.77;2.57;;;9.10;99.90;;;;;;6180404;23;20180;-90
2021/05/30 00:29:12;;;;;;;3.80;3.50;;;9.10;99.90;;;;;;6179148;23;20178;-90
2021/05/30 00:31:39;;;;;;;2.80;2.60;;;9.10;99.90;;;;;;6179985;23;20250;-89
2021/05/30 00:34:05;;;;;;;3.00;2.80;;;9.00;99.90;;;;;;6179448;23;20197;-91
2021/05/30 00:36:30;;;;;;;3.43;3.13;;;9.00;99.90;;;;;;6180098;23;20416;-90
2021/05/30 00:38:56;;;;;;;6.13;3.40;;;9.10;99.90;;;;;;6181212;23;20405;-90
2021/05/30 00:41:22;;;;;;;3.10;2.70;;;9.10;99.90;;;;;;6182158;23;20168;-89
2021/05/30 00:43:53;;;;;;;3.90;3.57;;;8.90;99.90;;;;;;6182197;23;20200;-91
2021/05/30 00:46:20;;;;;;;3.60;3.30;;;8.80;99.90;;;;;;6180919;23;20190;-90
2021/05/30 00:48:46;;;;;;;4.00;3.60;;;8.80;99.90;;;;;;6181574;23;20401;-90
2021/05/30 00:51:12;;;;;;;4.10;3.80;;;8.80;99.90;;;;;;6182190;23;20725;-90
2021/05/30 00:53:38;;;;;;;9.70;4.70;;;8.70;99.90;;;;;;6180694;23;20427;-89
2021/05/30 00:56:09;;;;;;;3.90;3.60;;;8.70;99.90;;;;;;6181508;23;20409;-90
2021/05/30 00:58:35;;;;;;;4.93;3.50;;;8.60;99.90;;;;;;6181412;23;20378;-90
2021/05/30 01:01:10;;;;;;;3.77;3.47;;;8.50;99.90;;;;;;6181368;23;21032;-90
2021/05/30 01:03:39;;;;;;;4.10;3.80;;;8.50;99.90;;;;;;6180168;23;20764;-90
2021/05/30 01:06:08;;;;;;;4.20;3.80;;;8.60;99.90;;;;;;6181862;23;20398;-90
2021/05/30 01:08:35;;;;;;;4.03;3.63;;;8.60;99.90;;;;;;6181609;23;20387;-90
2021/05/30 01:11:02;;;;;;;4.33;3.90;;;8.60;99.90;;;;;;6181362;23;20474;-90
2021/05/30 01:13:38;;;;;;;3.83;3.53;;;8.50;99.90;;;;;;6180641;23;20434;-90
2021/05/30 01:16:04;;;;;;;3.90;3.60;;;8.30;99.90;;;;;;6181259;23;20717;-90
2021/05/30 01:18:30;;;;;;;4.23;3.93;;;8.20;99.90;;;;;;6206657;23;20404;-90
2021/05/30 01:20:56;;;;;;;4.20;3.90;;;8.40;99.90;;;;;;6180519;23;20387;-89
2021/05/30 01:23:22;;;;;;;5.87;4.10;;;8.30;99.90;;;;;;6181773;23;20157;-90
2021/05/30 01:25:51;;;;;;;4.73;4.13;;;8.30;99.90;;;;;;6181609;23;20259;-90
2021/05/30 01:28:17;;;;;;;4.80;4.40;;;8.10;99.90;;;;;;6181545;23;20394;-89
2021/05/30 01:30:44;;;;;;;4.33;3.93;;;8.00;99.90;;;;;;6180911;23;20768;-93
2021/05/30 01:33:10;;;;;;;4.87;3.93;;;8.10;99.90;;;;;;6181387;23;20431;-92
2021/05/30 01:35:36;;;;;;;4.23;3.93;;;8.10;99.90;;;;;;6181454;23;20533;-90
2021/05/30 01:38:02;;;;;;;4.40;3.90;;;8.10;99.90;;;;;;6181105;23;20163;-90
2021/05/30 01:40:28;;;;;;;4.73;4.30;;;8.00;99.90;;;;;;6181156;23;20494;-89
2021/05/30 01:42:55;;;;;;;4.20;3.80;;;7.90;99.90;;;;;;6181600;23;20167;-90
2021/05/30 01:45:22;;;;;;;4.90;4.40;;;7.90;99.90;;;;;;6180415;23;20235;-90
2021/05/30 01:47:48;;;;;;;3.97;3.57;;;7.90;99.90;;;;;;6181166;23;20469;-91
2021/05/30 01:50:17;;;;;;;4.70;4.30;;;7.90;99.90;;;;;;6180508;23;20769;-90
2021/05/30 01:52:43;;;;;;;4.67;4.27;;;7.90;99.90;;;;;;6180556;23;20435;-90
2021/05/30 01:57:53;;;;;;;4.60;4.20;;;7.60;99.90;;;;;;6207677;23;20456;-90
2021/05/30 02:00:20;;;;;;;5.20;4.70;;;7.40;99.90;;;;;;6181185;23;20398;-90
2021/05/30 02:02:52;;;;;;;5.33;4.70;;;7.30;99.90;;;;;;6180457;23;20444;-90
2021/05/30 02:05:19;;;;;;;5.43;4.80;;;7.40;99.90;;;;;;6181283;23;20423;-89
2021/05/30 02:07:46;;;;;;;5.93;5.33;;;7.40;99.90;;;;;;6181266;23;20866;-89
2021/05/30 02:10:13;;;;;;;4.90;4.50;;;7.50;99.90;;;;;;6181283;23;20449;-89
2021/05/30 02:12:39;;;;;;;5.90;4.70;;;7.50;99.90;;;;;;6180635;23;20394;-90
2021/05/30 02:15:15;;;;;;;5.60;4.90;;;7.60;99.90;;;;;;6180644;23;20779;-90
2021/05/30 02:17:40;;;;;;;4.90;4.50;;;7.70;99.90;;;;;;6178839;23;20399;-90
2021/05/30 02:20:33;;;;;;;4.93;4.43;;;7.70;99.90;;;;;;6205821;23;20460;-89
2021/05/30 02:23:11;;;;;;;4.53;4.13;;;7.70;99.90;;;;;;6206880;23;20396;-90
2021/05/30 02:25:37;;;;;;;4.13;3.83;;;7.70;99.90;;;;;;6181011;23;20668;-90
2021/05/30 02:28:04;;;;;;;4.97;4.57;;;7.70;99.90;;;;;;6180863;23;20939;-89
2021/05/30 02:30:29;;;;;;;4.70;4.30;;;7.80;99.90;;;;;;6180734;23;20403;-90
2021/05/30 02:32:55;;;;;;;4.17;3.87;;;8.00;99.90;;;;;;6180754;23;20460;-89
2021/05/30 02:35:22;;;;;;;4.33;4.03;;;8.00;99.90;;;;;;6180474;23;20165;-89
2021/05/30 02:37:48;;;;;;;5.23;4.07;;;8.00;99.90;;;;;;6180673;23;20159;-92
2021/05/30 02:40:14;;;;;;;4.47;4.07;;;8.00;99.90;;;;;;6180712;23;20411;-90
2021/05/30 02:42:39;;;;;;;5.63;4.10;;;8.00;99.90;;;;;;6180691;23;20378;-89
2021/05/30 02:45:06;;;;;;;4.33;3.93;;;8.10;99.90;;;;;;6180746;23;20160;-90
2021/05/30 02:47:32;;;;;;;4.57;4.17;;;8.00;99.90;;;;;;6180755;23;20479;-89
2021/05/30 02:49:58;;;;;;;5.87;4.70;;;7.90;99.90;;;;;;6180427;23;20406;-89
2021/05/30 02:52:24;;;;;;;4.93;4.43;;;7.90;99.90;;;;;;6178136;23;20540;-90
2021/05/30 02:54:49;;;;;;;4.83;4.30;;;7.90;99.90;;;;;;6180323;23;20438;-90
2021/05/30 02:57:15;;;;;;;4.90;4.50;;;7.90;99.90;;;;;;6180315;23;20170;-89
2021/05/30 02:59:41;;;;;;;4.70;4.30;;;7.80;99.90;;;;;;6181913;23;20170;-89
2021/05/30 03:02:07;;;;;;;4.87;4.37;;;7.80;99.90;;;;;;6179788;23;20190;-89
2021/05/30 03:04:32;;;;;;;4.67;4.27;;;7.80;99.90;;;;;;6178590;23;20247;-90
2021/05/30 03:06:58;;;;;;;4.27;3.97;;;7.60;99.90;;;;;;6180239;23;20220;-90
2021/05/30 03:09:24;;;;;;;5.13;4.60;;;7.40;99.90;;;;;;6179618;23;20225;-90
2021/05/30 03:11:49;;;;;;;4.33;4.03;;;7.30;99.90;;;;;;6180993;23;20164;-90
2021/05/30 03:14:15;;;;;;;7.43;4.63;;;7.30;99.90;;;;;;6179340;23;20197;-90
2021/05/30 03:16:41;;;;;;;5.33;4.80;;;7.40;99.90;;;;;;6179770;23;20501;-92
2021/05/30 03:19:06;;;;;;;5.57;4.73;;;7.40;99.90;;;;;;6178640;23;20272;-90
2021/05/30 03:21:32;;;;;;;4.40;4.00;;;7.40;99.90;;;;;;6180756;23;20163;-90
2021/05/30 03:23:58;;;;;;;5.43;4.93;;;7.50;99.90;;;;;;6180529;23;20178;-90
2021/05/30 03:26:23;;;;;;;5.10;4.70;;;7.50;99.90;;;;;;6179366;23;20598;-90
2021/05/30 03:28:49;;;;;;;4.90;4.50;;;7.70;99.90;;;;;;6180006;23;20193;-90
2021/05/30 03:31:15;;;;;;;4.50;4.10;;;7.80;99.90;;;;;;6179794;23;20191;-90
2021/05/30 03:33:41;;;;;;;6.47;5.07;;;7.70;99.90;;;;;;6179994;23;20191;-89
2021/05/30 03:36:11;;;;;;;10.23;5.30;;;7.70;99.90;;;;;;6179114;23;20171;-89
2021/05/30 03:38:37;;;;;;;9.43;5.27;;;7.70;99.90;;;;;;6180183;23;20179;-90
2021/05/30 03:41:05;;;;;;;15.03;5.10;;;7.60;99.90;;;;;;6180045;23;20391;-90
2021/05/30 03:43:32;;;;;;;9.73;5.17;;;7.60;99.90;;;;;;6179315;23;20246;-90
2021/05/30 03:45:58;;;;;;;8.40;5.20;;;7.60;99.90;;;;;;6203969;23;20407;-89
2021/05/30 03:48:23;;;;;;;5.90;5.33;;;7.70;99.90;;;;;;6206179;23;20756;-90
2021/05/30 03:50:50;;;;;;;6.83;5.27;;;7.80;99.90;;;;;;6178815;23;20171;-90
2021/05/30 03:53:20;;;;;;;7.93;4.80;;;7.70;99.90;;;;;;6180048;23;20653;-90
2021/05/30 03:55:46;;;;;;;6.67;4.90;;;7.60;99.90;;;;;;6179390;23;20391;-89
2021/05/30 03:58:13;;;;;;;4.70;4.30;;;7.50;99.90;;;;;;6179567;23;20430;-89
2021/05/30 04:00:40;;;;;;;5.50;5.00;;;7.40;99.90;;;;;;6155656;23;20523;-90
2021/05/30 04:03:06;;;;;;;5.20;4.70;;;7.50;99.90;;;;;;6179582;23;20446;-90
2021/05/30 04:05:32;;;;;;;5.23;4.67;;;7.50;99.90;;;;;;6180137;23;20405;-90
2021/05/30 04:08:00;;;;;;;5.50;4.90;;;7.50;99.90;;;;;;6179087;23;20293;-89
2021/05/30 04:10:26;;;;;;;6.03;5.47;;;7.50;99.90;;;;;;6179495;23;20402;-90
2021/05/30 04:12:52;;;;;;;4.73;4.33;;;7.50;99.90;;;;;;6179372;23;20475;-90
2021/05/30 04:15:18;;;;;;;5.00;4.50;;;7.60;99.90;;;;;;6178906;23;20429;-90
2021/05/30 04:17:44;;;;;;;4.50;4.20;;;7.60;99.90;;;;;;6179383;23;20501;-90
2021/05/30 04:20:13;;;;;;;5.13;4.63;;;7.60;99.90;;;;;;6181299;23;20871;-89
2021/05/30 04:22:40;;;;;;;5.40;4.90;;;7.70;99.90;;;;;;6179463;23;20470;-90
2021/05/30 04:25:07;;;;;;;5.17;4.73;;;7.80;99.90;;;;;;6206832;23;20383;-90
2021/05/30 04:27:36;;;;;;;5.47;5.03;;;7.90;99.90;;;;;;6179968;23;20393;-90
2021/05/30 04:30:05;;;;;;;6.80;4.87;;;8.00;99.90;;;;;;6180353;23;20820;-89
2021/05/30 04:32:31;;;;;;;5.70;5.03;;;8.10;99.90;;;;;;6205151;23;20493;-90
2021/05/30 04:34:56;;;;;;;5.73;4.93;;;8.10;99.90;;;;;;6179324;23;20438;-90
2021/05/30 04:37:22;;;;;;;5.30;4.80;;;8.30;99.90;;;;;;6207226;23;20164;-90
2021/05/30 04:39:47;;;;;;;5.60;4.77;;;8.30;99.90;;;;;;6206266;23;20148;-90
2021/05/30 04:42:13;;;;;;;4.97;4.47;;;8.30;99.90;;;;;;6205259;23;20266;-89
2021/05/30 04:44:41;;;;;;;5.60;5.10;;;8.50;99.90;;;;;;6179275;23;20222;-90
2021/05/30 04:47:07;;;;;;;5.47;5.03;;;8.60;99.90;;;;;;6180227;23;20497;-89
2021/05/30 04:49:35;;;;;;;6.23;5.63;;;8.70;99.90;;;;;;6179267;23;20399;-89
2021/05/30 04:52:01;;;;;;;5.57;5.07;;;8.70;99.90;;;;;;6180513;23;20606;-90
2021/05/30 04:54:26;;;;;;;7.00;5.10;;;8.90;99.90;;;;;;6178986;23;20539;-89
2021/05/30 04:56:53;;;;;;;6.30;5.70;;;9.00;99.90;;;;;;6176578;23;20164;-90
2021/05/30 04:59:19;;;;;;;5.00;4.43;;;9.20;99.90;;;;;;6177695;23;20172;-90
2021/05/30 05:01:45;;;;;;;6.03;5.40;;;9.40;99.90;;;;;;6179288;23;20391;-90
2021/05/30 05:04:11;;;;;;;4.50;4.10;;;9.40;99.90;;;;;;6178136;23;20672;-89
2021/05/30 05:06:37;;;;;;;9.70;5.07;;;9.40;99.90;;;;;;6180092;23;20170;-89
2021/05/30 05:09:02;;;;;;;4.70;4.30;;;9.40;99.90;;;;;;6180079;23;20737;-89
2021/05/30 05:11:28;;;;;;;5.50;5.00;;;9.40;99.90;;;;;;6179277;23;20726;-90
2021/05/30 05:13:54;;;;;;;5.60;5.10;;;9.50;99.90;;;;;;6179543;23;20640;-89
2021/05/30 05:16:20;;;;;;;5.13;4.73;;;9.50;99.90;;;;;;6179132;23;20242;-89
2021/05/30 05:18:45;;;;;;;4.97;4.57;;;9.60;99.90;;;;;;6178360;23;20854;-90
2021/05/30 05:21:11;;;;;;;8.90;4.80;;;9.70;99.90;;;;;;6179283;23;20213;-89
2021/05/30 05:23:37;;;;;;;5.10;4.70;;;9.70;99.90;;;;;;6179997;23;20161;-89
2021/05/30 05:26:04;;;;;;;5.53;4.93;;;9.80;99.90;;;;;;6181305;23;20673;-90
2021/05/30 05:28:32;;;;;;;5.40;4.80;;;9.90;99.90;;;;;;6180306;23;20561;-90
2021/05/30 05:30:58;;;;;;;5.00;4.53;;;10.00;99.90;;;;;;6181557;23;20394;-89
2021/05/30 05:33:27;;;;;;;4.73;4.30;;;10.10;99.90;;;;;;6181701;23;20464;-89
2021/05/30 05:35:53;;;;;;;5.07;4.60;;;10.20;99.90;;;;;;6181421;23;20401;-90
2021/05/30 05:38:20;;;;;;;4.87;4.37;;;10.30;99.90;;;;;;6181765;23;20404;-90
2021/05/30 05:40:46;;;;;;;4.90;4.43;;;10.30;99.90;;;;;;6180988;23;20409;-89
2021/05/30 05:43:11;;;;;;;4.87;4.47;;;10.40;99.90;;;;;;6181163;23;20401;-90
2021/05/30 05:45:38;;;;;;;4.40;4.10;;;10.50;99.90;;;;;;6180759;23;20474;-89
2021/05/30 05:48:10;;;;;;;5.53;4.90;;;10.60;99.90;;;;;;6181633;23;20172;-89
2021/05/30 05:50:36;;;;;;;4.77;4.37;;;10.60;99.90;;;;;;6177697;23;20398;-90
2021/05/30 05:53:02;;;;;;;4.97;4.47;;;10.70;99.90;;;;;;6180530;23;20401;-90
2021/05/30 05:55:28;;;;;;;5.80;5.30;;;10.80;99.90;;;;;;6181315;23;20399;-89
2021/05/30 05:57:53;;;;;;;5.30;4.80;;;11.00;99.90;;;;;;6180345;23;20167;-90
2021/05/30 06:00:23;;;;;;;5.27;4.70;;;11.10;99.90;;;;;;6179871;23;20598;-90
2021/05/30 06:02:50;;;;;;;8.60;4.97;;;11.20;99.90;;;;;;6179658;23;20193;-91
2021/05/30 06:05:18;;;;;;;5.03;4.53;;;11.30;99.90;;;;;;6180079;23;20409;-89
2021/05/30 06:07:46;;;;;;;5.57;4.80;;;11.30;99.90;;;;;;6180885;23;20390;-90
2021/05/30 06:10:13;;;;;;;5.57;5.03;;;11.40;99.90;;;;;;6180245;23;20758;-90
2021/05/30 06:12:39;;;;;;;5.13;4.63;;;11.60;99.90;;;;;;6180825;23;20668;-90
2021/05/30 06:15:06;;;;;;;5.13;4.50;;;11.60;99.90;;;;;;6179631;23;20470;-90
2021/05/30 06:17:31;;;;;;;4.40;4.00;;;11.80;99.90;;;;;;6180375;23;20226;-90
2021/05/30 06:19:57;;;;;;;5.10;4.60;;;12.00;99.90;;;;;;6180596;23;20861;-89
2021/05/30 06:22:23;;;;;;;4.70;4.30;;;12.00;99.90;;;;;;6180249;23;20667;-89
2021/05/30 06:24:48;;;;;;;4.07;3.77;;;12.20;99.90;;;;;;6180377;23;20171;-89
2021/05/30 06:27:14;;;;;;;5.60;4.67;;;12.30;99.90;;;;;;6181101;23;20468;-90
2021/05/30 06:29:40;;;;;;;4.93;4.07;;;12.40;99.90;;;;;;6180481;23;20180;-90
2021/05/30 06:32:06;;;;;;;4.43;3.97;;;12.50;99.90;;;;;;6180754;23;20485;-90
2021/05/30 06:34:32;;;;;;;3.87;3.57;;;12.60;99.90;;;;;;6180495;23;20246;-90
2021/05/30 06:36:58;;;;;;;4.37;3.97;;;12.70;99.90;;;;;;6180496;23;20398;-89
2021/05/30 06:39:24;;;;;;;4.47;4.07;;;12.60;99.90;;;;;;6182354;23;20479;-90
2021/05/30 06:41:51;;;;;;;5.23;3.40;;;12.70;99.90;;;;;;6180782;23;20386;-90
2021/05/30 06:44:18;;;;;;;4.90;3.83;;;12.80;99.90;;;;;;6180042;23;20395;-90
2021/05/30 06:46:50;;;;;;;4.60;4.20;;;12.90;99.90;;;;;;6181263;23;20409;-90
2021/05/30 06:49:16;;;;;;;4.70;4.30;;;13.10;99.90;;;;;;6181093;23;20398;-89
2021/05/30 06:51:42;;;;;;;4.03;3.73;;;13.30;99.90;;;;;;6180714;23;20398;-89
2021/05/30 06:54:09;;;;;;;4.67;4.20;;;13.50;99.90;;;;;;6181183;23;20195;-89
2021/05/30 06:56:35;;;;;;;4.37;4.03;;;13.70;99.90;;;;;;6181076;23;20516;-89
2021/05/30 06:59:02;;;;;;;4.50;4.10;;;13.80;99.90;;;;;;6181910;23;20403;-89
2021/05/30 07:01:28;;;;;;;6.07;4.17;;;13.80;99.90;;;;;;6180222;23;20387;-89
2021/05/30 07:03:54;;;;;;;4.10;3.70;;;13.80;99.90;;;;;;6180590;23;20402;-90
2021/05/30 07:06:22;;;;;;;4.47;4.07;;;13.90;99.90;;;;;;6180097;23;21048;-89
2021/05/30 07:08:49;;;;;;;4.27;3.97;;;13.90;99.90;;;;;;6180381;23;20167;-90
2021/05/30 07:11:16;;;;;;;5.00;4.60;;;14.10;99.90;;;;;;6180876;23;20394;-89
2021/05/30 07:13:42;;;;;;;4.13;3.83;;;14.30;99.90;;;;;;6177326;23;20430;-89
2021/05/30 07:16:08;;;;;;;4.73;4.33;;;14.20;99.50;;;;;;6179844;23;20457;-90
2021/05/30 07:18:34;;;;;;;5.20;4.20;;;14.30;99.90;;;;;;6179388;23;20255;-89
2021/05/30 07:21:00;;;;;;;5.13;4.60;;;14.40;99.50;;;;;;6179075;23;20866;-91
2021/05/30 07:23:26;;;;;;;5.00;4.50;;;14.60;99.80;;;;;;6179940;23;20648;-92
2021/05/30 07:25:53;;;;;;;4.73;4.33;;;14.60;99.20;;;;;;6178212;23;20395;-90
2021/05/30 07:28:19;;;;;;;4.00;3.70;;;14.70;98.40;;;;;;6180004;23;20418;-90
2021/05/30 07:30:45;;;;;;;5.17;4.67;;;14.70;99.40;;;;;;6179695;23;20486;-90
2021/05/30 07:33:11;;;;;;;4.43;4.03;;;14.90;98.70;;;;;;6180125;23;20395;-90
2021/05/30 07:35:39;;;;;;;4.83;4.37;;;15.00;97.70;;;;;;6204190;23;20484;-89
2021/05/30 07:38:08;;;;;;;4.70;4.37;;;15.00;97.10;;;;;;6178813;23;20715;-90
2021/05/30 07:40:35;;;;;;;4.73;4.30;;;15.20;98.60;;;;;;6177563;23;21093;-90
2021/05/30 07:43:02;;;;;;;5.07;4.67;;;15.40;97.30;;;;;;6178343;23;20398;-91
2021/05/30 07:45:29;;;;;;;5.80;5.20;;;15.50;97.60;;;;;;6178671;23;20393;-91
2021/05/30 07:47:55;;;;;;;4.77;4.47;;;15.60;97.10;;;;;;6178755;23;20485;-90
2021/05/30 07:50:23;;;;;;;4.73;4.20;;;15.60;96.50;;;;;;6179639;23;20535;-91
2021/05/30 07:52:49;;;;;;;4.73;3.73;;;15.80;97.20;;;;;;6179498;23;20481;-90
2021/05/30 07:55:15;;;;;;;6.40;3.57;;;15.90;95.60;;;;;;6179403;23;20469;-91
2021/05/30 07:57:41;;;;;;;3.97;3.63;;;16.00;93.80;;;;;;6179958;23;20387;-89
2021/05/30 08:00:09;;;;;;;4.83;3.70;;;16.20;94.00;;;;;;6179459;23;20422;-90
2021/05/30 08:02:41;;;;;;;3.00;2.80;;;16.30;93.00;;;;;;6182464;23;20160;-93
2021/05/30 08:05:11;;;;;;;4.17;3.60;;;16.50;93.90;;;;;;6177571;23;20402;-91
2021/05/30 08:07:38;;;;;;;3.77;3.40;;;16.40;91.00;;;;;;6179733;23;20398;-91
2021/05/30 08:10:05;;;;;;;3.93;3.60;;;16.40;90.90;;;;;;6204644;23;20399;-91
2021/05/30 08:12:47;;;;;;;4.07;3.67;;;16.60;92.10;;;;;;6176014;23;20395;-91
2021/05/30 08:15:26;;;;;;;3.23;3.00;;;16.80;90.60;;;;;;6206707;23;20394;-91
2021/05/30 08:17:53;;;;;;;3.23;2.60;;;16.90;89.50;;;;;;6179883;23;20391;-90
2021/05/30 08:20:20;;;;;;;3.83;2.67;;;16.70;86.80;;;;;;6155690;23;20752;-91
2021/05/30 08:22:47;;;;;;;2.87;2.57;;;16.80;87.10;;;;;;6181193;23;20391;-90
2021/05/30 08:25:16;;;;;;;2.93;2.63;;;16.90;86.00;;;;;;6180519;23;20387;-90
2021/05/30 08:27:44;;;;;;;3.20;3.00;;;17.20;86.10;;;;;;6180353;23;20472;-91
2021/05/30 08:30:11;;;;;;;3.70;2.90;;;17.00;86.20;;;;;;6178481;23;20418;-93
2021/05/30 08:32:37;;;;;;;4.07;2.93;;;17.20;84.30;;;;;;6180324;23;20395;-89
2021/05/30 08:35:05;;;;;;;3.40;2.80;;;17.40;85.40;;;;;;6181146;23;20759;-90
2021/05/30 08:37:35;;;;;;;4.00;3.70;;;17.40;86.20;;;;;;6181262;23;21293;-90
2021/05/30 08:40:04;;;;;;;3.07;2.87;;;17.30;88.00;;;;;;6180008;23;20409;-89
2021/05/30 08:42:30;;;;;;;3.93;3.53;;;17.20;87.70;;;;;;6179727;23;20940;-89
2021/05/30 08:44:55;;;;;;;3.30;3.00;;;17.30;87.90;;;;;;6180349;23;20394;-90
2021/05/30 08:47:22;;;;;;;3.63;3.33;;;17.40;85.90;;;;;;6175459;23;20164;-92
2021/05/30 08:49:49;;;;;;;3.20;2.40;;;17.50;88.50;;;;;;6177521;23;20553;-93
2021/05/30 08:52:15;;;;;;;3.03;2.83;;;17.50;80.70;;;;;;6178151;23;20486;-92
2021/05/30 08:54:41;;;;;;;3.40;3.10;;;17.60;82.50;;;;;;6177931;23;20446;-90
2021/05/30 08:57:07;;;;;;;3.40;2.90;;;17.90;81.20;;;;;;6177787;23;20386;-91
2021/05/30 08:59:34;;;;;;;3.00;2.80;;;18.20;82.00;;;;;;6203182;23;20908;-90
2021/05/30 09:02:10;;;;;;;3.40;3.10;;;18.30;80.20;;;;;;6179599;23;20160;-89
2021/05/30 09:04:42;;;;;;;2.90;2.70;;;18.40;79.20;;;;;;6179949;23;20386;-91
2021/05/30 09:07:09;;;;;;;4.37;3.10;;;18.10;79.20;;;;;;6179848;23;20398;-89
2021/05/30 09:09:46;;;;;;;4.60;2.80;;;18.10;79.10;;;;;;6182452;23;20374;-91
2021/05/30 09:12:39;;;;;;;3.47;3.17;;;18.10;77.80;;;;;;6181539;23;20396;-91
2021/05/30 09:15:48;;;;;;;3.07;2.87;;;18.20;79.00;;;;;;6179425;23;20851;-90
2021/05/30 09:18:15;;;;;;;3.40;3.10;;;18.60;78.10;;;;;;6179872;23;20387;-92
2021/05/30 09:20:59;;;;;;;3.60;2.97;;;18.60;77.70;;;;;;6179834;23;20426;-89
2021/05/30 09:23:45;;;;;;;3.30;3.10;;;18.60;74.40;;;;;;6179957;23;20400;-91
2021/05/30 09:26:15;;;;;;;3.27;2.97;;;18.60;76.70;;;;;;6180787;23;20604;-92
2021/05/30 09:29:03;;;;;;;3.20;3.00;;;18.30;72.70;;;;;;6207468;23;20903;-90
2021/05/30 09:31:28;;;;;;;3.00;2.80;;;17.70;76.60;;;;;;6181583;23;20405;-91
2021/05/30 09:33:54;;;;;;;3.50;3.20;;;17.70;73.10;;;;;;6177549;23;20767;-90
2021/05/30 09:36:23;;;;;;;2.77;2.57;;;18.10;75.70;;;;;;6179544;23;20247;-91
2021/05/30 09:39:02;;;;;;;2.80;2.60;;;19.00;81.60;;;;;;6207105;23;20486;-90
2021/05/30 09:41:30;;;;;;;3.40;3.10;;;19.50;74.80;;;;;;6183300;23;20399;-92
2021/05/30 09:43:56;;;;;;;3.00;2.70;;;19.50;71.50;;;;;;6181483;23;20869;-92
2021/05/30 09:46:34;;;;;;;2.67;2.47;;;19.50;70.60;;;;;;6186506;23;20445;-92
2021/05/30 09:49:01;;;;;;;2.77;2.57;;;19.60;72.50;;;;;;6180296;23;21029;-92
2021/05/30 09:51:41;;;;;;;3.17;2.97;;;19.40;69.70;;;;;;6180422;23;20399;-92
2021/05/30 09:54:11;;;;;;;2.53;2.33;;;19.30;69.70;;;;;;6180415;23;20438;-93
2021/05/30 09:56:53;;;;;;;2.57;2.40;;;19.40;64.50;;;;;;6179478;23;20478;-92
2021/05/30 09:59:21;;;;;;;2.37;2.13;;;19.40;62.90;;;;;;6180743;23;20403;-92
2021/05/30 10:02:02;;;;;;;3.27;2.90;;;19.70;68.20;;;;;;6181153;23;20395;-93
2021/05/30 10:04:28;;;;;;;3.60;2.67;;;20.00;66.00;;;;;;6179557;23;20428;-91
2021/05/30 10:06:58;;;;;;;2.43;2.23;;;20.10;63.70;;;;;;6182044;23;20490;-91
2021/05/30 10:09:25;;;;;;;3.10;2.90;;;20.20;69.40;;;;;;6208079;23;20395;-92
2021/05/30 10:11:51;;;;;;;3.33;3.13;;;20.20;64.40;;;;;;6206309;23;20395;-91
2021/05/30 10:14:17;;;;;;;2.70;2.50;;;20.30;61.50;;;;;;6205611;23;20529;-92
2021/05/30 10:16:44;;;;;;;2.63;2.43;;;20.50;61.20;;;;;;6182463;23;20156;-92
2021/05/30 10:19:16;;;;;;;3.43;2.30;;;21.10;60.90;;;;;;6184165;23;20160;-92
2021/05/30 10:21:51;;;;;;;3.00;2.70;;;20.90;61.00;;;;;;6182039;23;20482;-93
2021/05/30 10:24:22;;;;;;;3.10;2.90;;;20.60;61.60;;;;;;6206861;23;20837;-92
2021/05/30 10:27:16;;;;;;;3.00;2.80;;;20.70;67.20;;;;;;6181201;23;20889;-89
2021/05/30 10:30:12;;;;;;;2.80;2.60;;;20.80;61.10;;;;;;6181208;23;20406;-91
2021/05/30 10:32:43;;;;;;;11.93;3.57;;;21.10;63.70;;;;;;6189719;23;20567;-90
2021/05/30 10:35:20;;;;;;;3.03;2.73;;;21.60;60.90;;;;;;6180411;23;20943;-90
2021/05/30 10:37:49;;;;;;;2.93;2.73;;;21.20;62.20;;;;;;6207565;23;20382;-91
2021/05/30 10:40:21;;;;;;;3.27;2.97;;;21.40;63.60;;;;;;6181054;23;20430;-93
2021/05/30 10:43:09;;;;;;;3.20;2.90;;;21.60;66.10;;;;;;6180463;23;20473;-90
2021/05/30 10:45:44;;;;;;;3.40;3.10;;;21.80;61.50;;;;;;6207305;23;20383;-90
2021/05/30 10:48:14;;;;;;;3.17;2.87;;;22.10;62.10;;;;;;6180532;23;20434;-90
2021/05/30 10:51:21;;;;;;;4.53;2.70;;;22.20;61.70;;;;;;6180282;23;20386;-91
2021/05/30 10:53:47;;;;;;;4.37;2.80;;;21.50;63.90;;;;;;6156377;23;20894;-89
2021/05/30 10:56:18;;;;;;;3.40;3.10;;;21.40;60.50;;;;;;6179090;23;20407;-92
2021/05/30 10:59:03;;;;;;;3.83;3.40;;;21.20;61.40;;;;;;6180184;23;20379;-90
2021/05/30 11:01:35;;;;;;;3.87;3.57;;;21.20;59.00;;;;;;6181219;23;20706;-90
2021/05/30 11:04:22;;;;;;;3.70;3.30;;;21.30;61.20;;;;;;6180661;23;20754;-91
2021/05/30 11:06:49;;;;;;;3.23;3.00;;;21.30;62.60;;;;;;6180445;23;20429;-90
2021/05/30 11:09:15;;;;;;;3.50;2.90;;;21.60;67.10;;;;;;6180868;23;20481;-91
2021/05/30 11:11:41;;;;;;;3.50;3.20;;;21.90;61.20;;;;;;6181631;23;20389;-90
2021/05/30 11:14:14;;;;;;;3.57;3.27;;;22.40;57.20;;;;;;6179976;23;20501;-90
2021/05/30 11:16:47;;;;;;;2.83;2.67;;;22.50;57.10;;;;;;6180834;23;20401;-92
2021/05/30 11:19:18;;;;;;;3.40;2.90;;;22.50;57.60;;;;;;6181732;23;20444;-91
2021/05/30 11:21:46;;;;;;;2.90;2.70;;;22.70;59.00;;;;;;6178887;23;20398;-91
2021/05/30 11:24:25;;;;;;;3.10;2.90;;;22.80;51.30;;;;;;6179519;23;20399;-91
2021/05/30 11:26:59;;;;;;;3.20;3.00;;;21.60;55.40;;;;;;6180360;23;20395;-92
2021/05/30 11:29:26;;;;;;;2.97;2.77;;;20.80;54.90;;;;;;6180648;23;20473;-92
2021/05/30 11:31:52;;;;;;;3.37;3.10;;;20.40;54.20;;;;;;6180114;23;20429;-92
2021/05/30 11:34:18;;;;;;;3.30;3.10;;;20.50;59.30;;;;;;6179563;23;20517;-92
2021/05/30 11:36:45;;;;;;;3.20;2.90;;;20.60;57.10;;;;;;6179668;23;20398;-90
2021/05/30 11:39:20;;;;;;;3.17;2.97;;;20.70;58.90;;;;;;6179481;23;20445;-92
2021/05/30 11:41:52;;;;;;;3.20;2.93;;;20.30;55.10;;;;;;6177060;23;20434;-92
2021/05/30 11:44:22;;;;;;;3.70;3.20;;;19.90;58.10;;;;;;6179646;23;20391;-91
2021/05/30 11:47:02;;;;;;;2.97;2.77;;;20.00;61.00;;;;;;6179705;23;20434;-92
2021/05/30 11:49:31;;;;;;;3.33;3.13;;;20.80;59.80;;;;;;6179960;23;20422;-91
2021/05/30 11:52:12;;;;;;;3.10;2.90;;;21.50;57.80;;;;;;6180166;23;20426;-92
2021/05/30 11:54:47;;;;;;;3.50;3.20;;;21.90;55.50;;;;;;6178682;23;20533;-92
2021/05/30 11:57:18;;;;;;;4.40;3.10;;;21.80;54.10;;;;;;6177371;23;20402;-92
2021/05/30 12:00:05;;;;;;;2.90;2.70;;;22.00;57.60;;;;;;6177889;23;20422;-91
2021/05/30 12:02:31;;;;;;;3.17;2.87;;;22.70;57.10;;;;;;6204215;23;20390;-92
2021/05/30 12:05:02;;;;;;;2.90;2.70;;;23.00;56.20;;;;;;6178560;23;20390;-92
2021/05/30 12:07:29;;;;;;;3.47;3.03;;;23.00;54.70;;;;;;6180255;23;20712;-95
2021/05/30 12:10:00;;;;;;;3.37;3.07;;;23.10;54.10;;;;;;6180796;23;20500;-93
2021/05/30 12:12:38;;;;;;;4.87;2.60;;;23.60;54.90;;;;;;6180905;23;20394;-92
2021/05/30 12:15:14;;;;;;;2.57;2.40;;;23.60;50.70;;;;;;6179399;23;20442;-92
2021/05/30 12:17:56;;;;;;;2.93;2.73;;;23.40;50.10;;;;;;6180793;23;20399;-92
2021/05/30 12:20:29;;;;;;;4.90;2.93;;;23.40;51.50;;;;;;6181665;23;20406;-93
2021/05/30 12:23:22;;;;;;;3.20;2.90;;;23.10;51.20;;;;;;6176955;23;20434;-94
2021/05/30 12:26:04;;;;;;;2.87;2.67;;;22.00;51.60;;;;;;6181227;23;20391;-96
2021/05/30 12:28:35;;;;;;;2.97;2.67;;;22.10;50.10;;;;;;6206678;23;20417;-94
2021/05/30 12:31:06;;;;;;;3.20;2.97;;;22.10;51.80;;;;;;6178565;23;20389;-89
2021/05/30 12:33:51;;;;;;;3.03;2.83;;;22.60;51.30;;;;;;6179281;23;20439;-89
2021/05/30 12:36:31;;;;;;;3.70;2.90;;;22.00;49.20;;;;;;6180601;23;20399;-88
2021/05/30 12:39:03;;;;;;;3.00;2.80;;;21.40;53.10;;;;;;6181527;23;21348;-91
2021/05/30 12:41:31;;;;;;;3.47;3.17;;;22.00;54.50;;;;;;6182359;23;20407;-93
2021/05/30 12:44:07;;;;;;;3.37;2.60;;;22.10;52.80;;;;;;6179493;23;20461;-93
2021/05/30 12:46:34;;;;;;;4.20;2.60;;;22.20;52.20;;;;;;6181763;23;20816;-91
2021/05/30 12:49:12;;;;;;;3.53;2.83;;;21.90;52.60;;;;;;6180712;23;20433;-90
2021/05/30 12:51:39;;;;;;;3.00;2.70;;;21.90;51.90;;;;;;6181062;23;20884;-91
2021/05/30 12:54:18;;;;;;;3.00;2.80;;;21.90;51.50;;;;;;6177676;23;20449;-91
2021/05/30 12:56:48;;;;;;;3.20;2.60;;;21.40;53.20;;;;;;6179424;23;20402;-92
2021/05/30 12:59:16;;;;;;;4.17;3.30;;;21.60;51.80;;;;;;6180308;23;20397;-90
2021/05/30 13:01:46;;;;;;;2.70;2.50;;;22.60;57.80;;;;;;6179498;23;20827;-90